Time;durP1;ratioP1;P1;durP2;ratioP2;P2;SDS_P1;SDS_P2;PMS_P1;PMS_P2;Temp;Humidity;BMP_temperature;BMP_pressure;BME280_temperature;BME280_humidity;BME280_pressure;Samples;Min_cycle;Max_cycle;Signal;HPM_P1;HPM_P2
2022/06/22 00:00:00;;;;;;;8.00;5.60;;;;;;;13.57;84.22;101238.84;5095918;28;20032;-58
2022/06/22 00:02:31;;;;;;;9.73;5.97;;;;;;;13.53;84.23;101240.66;5095707;28;20085;-58
2022/06/22 00:05:01;;;;;;;9.82;5.30;;;;;;;13.49;84.31;101241.63;5095310;28;20447;-58
2022/06/22 00:07:43;;;;;;;6.07;5.35;;;;;;;13.46;83.65;101240.81;5094799;28;20044;-57
2022/06/22 00:10:37;;;;;;;9.10;5.55;;;;;;;13.48;84.07;101232.00;5095613;28;20042;-57
2022/06/22 00:13:04;;;;;;;8.13;5.35;;;;;;;13.49;84.56;101232.88;5095344;28;20438;-58
2022/06/22 00:15:58;;;;;;;7.55;5.65;;;;;;;13.40;85.38;101230.41;5095353;28;20059;-58
2022/06/22 00:18:24;;;;;;;12.75;6.53;;;;;;;13.42;85.24;101218.97;5091405;28;20468;-58
2022/06/22 00:20:52;;;;;;;11.40;6.57;;;;;;;13.43;85.86;101218.06;5095359;28;20116;-58
2022/06/22 00:23:48;;;;;;;12.18;7.47;;;;;;;13.50;84.99;101222.31;5095996;28;20035;-58
2022/06/22 00:26:22;;;;;;;11.68;6.57;;;;;;;13.55;86.19;101220.44;5079084;28;20032;-58
2022/06/22 00:28:55;;;;;;;11.40;6.53;;;;;;;13.64;85.70;101222.06;5095346;28;20076;-57
2022/06/22 00:31:26;;;;;;;8.73;7.30;;;;;;;13.55;85.45;101198.56;5095369;28;20494;-58
2022/06/22 00:34:20;;;;;;;10.02;7.10;;;;;;;13.67;85.12;101213.25;5095189;28;20035;-57
2022/06/22 00:36:54;;;;;;;10.02;7.28;;;;;;;13.54;86.16;101221.34;5084480;28;20474;-58
2022/06/22 00:39:29;;;;;;;11.55;7.70;;;;;;;13.41;86.57;101211.97;5095073;28;20032;-58
2022/06/22 00:42:14;;;;;;;10.80;8.15;;;;;;;13.33;87.68;101206.00;5094963;28;20032;-57
2022/06/22 00:44:44;;;;;;;12.77;7.80;;;;;;;13.34;88.28;101210.34;5094990;28;20035;-58
2022/06/22 00:47:23;;;;;;;13.73;8.07;;;;;;;13.47;87.95;101224.16;5095217;28;20027;-58
2022/06/22 00:49:48;;;;;;;11.38;8.10;;;;;;;13.54;88.33;101241.50;5095000;28;20039;-58
2022/06/22 00:52:22;;;;;;;11.40;8.00;;;;;;;13.53;87.97;101230.13;5094845;28;20377;-57
2022/06/22 00:54:47;;;;;;;10.82;8.18;;;;;;;13.45;88.01;101224.16;5095589;28;20039;-58
2022/06/22 00:57:21;;;;;;;11.75;8.00;;;;;;;13.36;88.45;101205.94;5094937;28;20347;-58
2022/06/22 01:00:01;;;;;;;10.77;8.10;;;;;;;13.35;87.92;101211.22;5094671;28;20472;-57
2022/06/22 01:02:44;;;;;;;10.20;8.15;;;;;;;13.32;89.47;101206.91;5094934;28;20052;-57
2022/06/22 01:05:20;;;;;;;13.25;8.45;;;;;;;13.29;89.23;101191.19;5094988;28;20389;-58
2022/06/22 01:08:06;;;;;;;13.13;9.00;;;;;;;13.29;88.90;101192.94;5094823;28;20098;-58
2022/06/22 01:10:40;;;;;;;12.75;8.93;;;;;;;13.35;89.97;101205.94;5094738;28;20036;-59
2022/06/22 01:13:17;;;;;;;12.10;8.60;;;;;;;13.39;89.74;101226.91;5094671;28;20035;-58
2022/06/22 01:15:56;;;;;;;12.20;9.60;;;;;;;13.43;89.66;101228.59;5094427;28;20027;-58
2022/06/22 01:18:33;;;;;;;11.32;8.95;;;;;;;13.43;89.59;101228.59;5095609;28;20024;-56
2022/06/22 01:21:04;;;;;;;10.88;8.82;;;;;;;13.43;89.57;101233.84;5098813;28;20099;-57
2022/06/22 01:23:50;;;;;;;13.10;9.10;;;;;;;13.38;88.05;101243.56;5098700;28;20040;-59
2022/06/22 01:26:51;;;;;;;11.38;8.80;;;;;;;13.29;89.34;101230.63;5098730;28;20281;-58
2022/06/22 01:29:21;;;;;;;10.82;9.25;;;;;;;13.13;90.52;101224.75;5098728;28;20131;-58
2022/06/22 01:32:02;;;;;;;11.75;9.00;;;;;;;13.15;90.17;101222.13;5098641;28;20066;-58
2022/06/22 01:34:34;;;;;;;15.35;9.30;;;;;;;13.13;90.62;101210.72;5098341;28;20058;-58
2022/06/22 01:37:06;;;;;;;13.43;9.88;;;;;;;13.02;91.65;101196.91;5098645;28;20439;-57
2022/06/22 01:39:32;;;;;;;12.90;9.82;;;;;;;12.89;92.07;101197.13;5098503;28;20037;-58
2022/06/22 01:42:02;;;;;;;14.02;10.27;;;;;;;12.89;93.26;101188.38;5098417;28;20093;-57
2022/06/22 01:44:36;;;;;;;15.07;10.98;;;;;;;12.95;93.08;101184.78;5098379;28;20027;-57
2022/06/22 01:47:14;;;;;;;15.55;10.63;;;;;;;12.98;93.80;101205.75;5098033;28;20039;-57
2022/06/22 01:50:00;;;;;;;16.13;10.77;;;;;;;13.05;93.08;101202.97;5098447;28;20078;-58
2022/06/22 01:52:45;;;;;;;14.82;10.88;;;;;;;13.04;93.63;101197.75;5098178;28;20107;-58
2022/06/22 01:55:33;;;;;;;14.70;11.30;;;;;;;13.02;94.24;101194.28;5098343;28;20130;-58
2022/06/22 01:58:14;;;;;;;14.20;10.50;;;;;;;13.01;94.40;101195.16;5098051;28;20020;-58
2022/06/22 02:00:43;;;;;;;13.32;10.90;;;;;;;13.00;94.89;101193.44;5098256;28;20059;-59
2022/06/22 02:03:33;;;;;;;14.50;10.80;;;;;;;13.04;94.48;101197.75;5098036;28;20106;-58
2022/06/22 02:07:44;;;;;;;16.60;11.57;;;;;;;12.96;95.58;101190.00;5097817;28;20028;-58
2022/06/22 02:08:52;;;;;;;15.05;11.20;;;;;;;12.96;95.80;101191.78;5097556;28;20470;-58
2022/06/22 02:11:22;;;;;;;15.60;11.98;;;;;;;12.94;96.86;101194.44;5097971;28;20034;-57
2022/06/22 02:13:57;;;;;;;15.75;11.82;;;;;;;12.92;97.12;101192.72;5097519;28;20074;-57
2022/06/22 02:16:43;;;;;;;17.75;11.95;;;;;;;12.85;97.10;101195.44;5097540;28;20032;-58
2022/06/22 02:19:13;;;;;;;14.25;11.95;;;;;;;12.93;97.45;101190.06;5097833;28;20027;-58
2022/06/22 02:21:42;;;;;;;17.98;12.18;;;;;;;12.89;98.58;101198.88;5097685;28;20032;-57
2022/06/22 02:24:35;;;;;;;18.20;11.45;;;;;;;12.88;97.75;101198.00;5097602;28;20466;-58
2022/06/22 02:27:03;;;;;;;17.17;12.43;;;;;;;12.95;97.92;101200.53;5097577;28;20357;-58
2022/06/22 02:29:33;;;;;;;17.10;12.82;;;;;;;12.92;98.46;101188.31;5096653;28;20044;-57
2022/06/22 02:32:01;;;;;;;15.65;12.60;;;;;;;12.95;98.43;101182.16;5096905;28;20085;-58
2022/06/22 02:34:30;;;;;;;18.52;12.10;;;;;;;12.86;99.14;101170.91;5097233;28;20470;-58
2022/06/22 02:36:58;;;;;;;19.95;12.82;;;;;;;12.85;99.59;101169.16;5097174;28;20094;-57
2022/06/22 02:39:25;;;;;;;19.92;12.93;;;;;;;12.89;98.94;101170.00;5097500;28;20071;-57
2022/06/22 02:44:39;;;;;;;22.00;13.30;;;;;;;12.88;99.20;101163.88;5097618;28;20116;-57
2022/06/22 02:47:29;;;;;;;17.20;12.80;;;;;;;12.90;98.99;101172.59;5096997;28;20357;-57
2022/06/22 02:50:15;;;;;;;17.15;12.73;;;;;;;12.90;98.57;101171.72;5097087;28;20447;-57
2022/06/22 02:52:46;;;;;;;17.83;12.80;;;;;;;12.88;98.46;101168.25;5096911;28;20032;-58
2022/06/22 02:55:15;;;;;;;18.08;12.38;;;;;;;12.95;98.01;101176.91;5097022;28;20036;-58
2022/06/22 02:57:48;;;;;;;16.70;12.70;;;;;;;12.94;97.64;101177.78;5096919;28;20347;-57
2022/06/22 03:00:16;;;;;;;18.95;12.55;;;;;;;12.88;97.07;101190.13;5096954;28;20043;-57
2022/06/22 03:02:41;;;;;;;17.65;12.82;;;;;;;12.88;97.34;101192.75;5096913;28;20036;-57
2022/06/22 03:05:09;;;;;;;18.42;12.55;;;;;;;12.91;97.52;101189.22;5096883;28;20354;-57
2022/06/22 03:07:37;;;;;;;16.88;12.50;;;;;;;12.89;97.08;101181.38;5096976;28;20020;-58
2022/06/22 03:10:04;;;;;;;15.43;12.27;;;;;;;12.86;97.46;101176.16;5096591;28;20036;-58
2022/06/22 03:12:29;;;;;;;15.40;11.68;;;;;;;12.83;96.80;101193.72;5096587;28;20025;-58
2022/06/22 03:14:58;;;;;;;18.52;12.00;;;;;;;12.80;96.96;101191.16;5097033;28;20119;-58
2022/06/22 03:17:42;;;;;;;16.30;12.15;;;;;;;12.65;97.30;101181.75;5096681;28;20116;-57
2022/06/22 03:20:18;;;;;;;15.43;11.57;;;;;;;12.61;97.75;101176.63;5096611;28;20032;-58
2022/06/22 03:22:51;;;;;;;19.90;13.18;;;;;;;12.52;98.09;101170.59;5096362;28;20036;-58
2022/06/22 03:25:35;;;;;;;16.85;11.80;;;;;;;12.54;98.29;101168.81;5096284;28;20039;-57
2022/06/22 03:28:12;;;;;;;16.42;12.55;;;;;;;12.55;98.17;101172.31;5096282;28;20032;-57
2022/06/22 03:30:47;;;;;;;17.25;13.07;;;;;;;12.58;98.18;101168.78;5096607;28;20060;-59
2022/06/22 03:33:28;;;;;;;17.60;12.77;;;;;;;12.53;98.28;101166.22;5096452;28;20062;-58
2022/06/22 03:36:00;;;;;;;20.02;13.32;;;;;;;12.48;99.47;101168.03;5096084;28;20044;-59
2022/06/22 03:38:31;;;;;;;19.35;13.32;;;;;;;12.48;99.66;101168.03;5096060;28;20028;-58
2022/06/22 03:41:02;;;;;;;19.17;13.73;;;;;;;12.48;99.99;101176.78;5096050;28;20430;-59
2022/06/22 03:43:46;;;;;;;20.30;14.65;;;;;;;12.53;100.00;101179.34;5095322;28;20463;-58
2022/06/22 03:46:17;;;;;;;23.33;14.90;;;;;;;12.54;100.00;101160.94;5096265;28;20024;-58
2022/06/22 03:48:48;;;;;;;21.05;14.75;;;;;;;12.61;100.00;101152.97;5095969;28;20032;-58
2022/06/22 03:51:19;;;;;;;19.65;15.07;;;;;;;12.59;100.00;101160.00;5096056;28;20032;-58
2022/06/22 03:54:02;;;;;;;21.30;14.60;;;;;;;12.62;100.00;101157.34;5095958;28;20054;-58
2022/06/22 03:56:36;;;;;;;19.80;15.35;;;;;;;12.60;100.00;101157.38;5095989;28;20340;-58
2022/06/22 03:59:03;;;;;;;21.50;14.45;;;;;;;12.62;100.00;101171.34;5095937;28;20046;-58
2022/06/22 04:01:29;;;;;;;22.80;14.10;;;;;;;12.69;100.00;101166.84;5095918;28;20031;-58
2022/06/22 04:03:56;;;;;;;18.60;14.63;;;;;;;12.70;100.00;101161.56;5095793;28;20032;-58
2022/06/22 04:06:43;;;;;;;21.52;14.80;;;;;;;12.71;100.00;101139.66;5095626;28;20418;-58
2022/06/22 04:09:21;;;;;;;20.15;15.52;;;;;;;12.71;100.00;101142.28;5095835;28;20031;-57
2022/06/22 04:12:05;;;;;;;23.45;15.68;;;;;;;12.68;100.00;101152.84;5095838;28;20466;-57
2022/06/22 04:14:38;;;;;;;23.63;16.45;;;;;;;12.58;100.00;101138.16;5095689;28;20039;-57
2022/06/22 04:17:11;;;;;;;22.20;15.95;;;;;;;12.69;100.00;101157.19;5095644;28;20028;-57
2022/06/22 04:19:44;;;;;;;22.73;16.08;;;;;;;12.78;100.00;101156.19;5095601;28;20035;-58
2022/06/22 04:22:21;;;;;;;23.35;17.00;;;;;;;12.80;100.00;101165.78;5095181;28;20028;-58
2022/06/22 04:24:52;;;;;;;20.77;16.25;;;;;;;12.79;100.00;101161.41;5095523;28;20395;-59
2022/06/22 04:27:27;;;;;;;20.50;16.05;;;;;;;12.83;100.00;101164.84;5095417;28;20028;-58
2022/06/22 04:30:03;;;;;;;22.15;16.90;;;;;;;12.92;100.00;101161.19;5095652;28;20465;-59
2022/06/22 04:32:42;;;;;;;25.00;16.95;;;;;;;12.96;100.00;101161.13;5095288;28;20028;-59
2022/06/22 04:35:19;;;;;;;23.40;16.98;;;;;;;12.99;100.00;101165.47;5095537;28;20062;-59
2022/06/22 04:38:08;;;;;;;24.15;16.55;;;;;;;13.05;100.00;101173.19;5095086;28;20096;-59
2022/06/22 04:41:01;;;;;;;20.90;16.70;;;;;;;13.13;100.00;101173.94;5048209;28;20051;-59
2022/06/22 04:43:27;;;;;;;23.63;17.02;;;;;;;13.14;100.00;101173.91;5095173;28;20028;-58
2022/06/22 04:45:53;;;;;;;20.75;15.95;;;;;;;13.16;100.00;101177.38;5095145;28;20039;-60
2022/06/22 04:48:40;;;;;;;25.48;16.77;;;;;;;13.26;100.00;101175.47;5095611;28;20032;-58
2022/06/22 04:51:11;;;;;;;25.00;17.17;;;;;;;13.34;100.00;101175.31;5094876;28;20024;-56
2022/06/22 04:53:38;;;;;;;25.67;16.90;;;;;;;13.35;100.00;101180.53;5094520;28;20028;-57
2022/06/22 04:56:09;;;;;;;23.65;16.83;;;;;;;13.37;100.00;101177.88;5095066;28;20067;-56
2022/06/22 04:58:47;;;;;;;20.10;16.92;;;;;;;13.38;100.00;101182.25;5095605;28;20032;-57
2022/06/22 05:01:23;;;;;;;26.70;17.80;;;;;;;13.33;100.00;101177.09;5094711;28;20481;-57
2022/06/22 05:03:53;;;;;;;24.88;18.52;;;;;;;13.38;100.00;101185.75;5094992;28;20119;-57
2022/06/22 05:06:25;;;;;;;23.70;17.30;;;;;;;13.43;100.00;101191.78;5095068;28;20423;-56
2022/06/22 05:08:59;;;;;;;23.55;18.33;;;;;;;13.46;100.00;101196.13;5094744;28;20028;-57
2022/06/22 05:11:30;;;;;;;24.20;16.80;;;;;;;13.52;100.00;101196.84;5095311;28;20023;-57
2022/06/22 05:13:59;;;;;;;24.70;17.77;;;;;;;13.58;100.00;101188.84;5095074;28;20073;-57
2022/06/22 05:16:29;;;;;;;26.63;18.25;;;;;;;13.62;100.00;101194.91;5095092;28;20087;-57
2022/06/22 05:18:56;;;;;;;25.80;18.77;;;;;;;13.64;100.00;101198.38;5094737;28;20442;-57
2022/06/22 05:21:33;;;;;;;27.50;18.80;;;;;;;13.68;100.00;101194.78;5094790;28;20032;-57
2022/06/22 05:24:01;;;;;;;24.02;18.08;;;;;;;13.75;100.00;101187.63;5094560;28;20447;-56
2022/06/22 05:26:28;;;;;;;24.77;17.70;;;;;;;13.83;100.00;101190.97;5094592;28;20106;-56
2022/06/22 05:29:06;;;;;;;24.20;18.77;;;;;;;13.90;100.00;101193.44;5094689;28;20427;-55
2022/06/22 05:31:37;;;;;;;27.85;18.48;;;;;;;13.99;100.00;101192.38;5094748;28;20039;-57
2022/06/22 05:34:08;;;;;;;23.65;17.73;;;;;;;14.06;100.00;101198.34;5095135;28;20059;-58
2022/06/22 05:36:46;;;;;;;25.80;19.40;;;;;;;14.09;100.00;101196.53;5094500;28;20036;-58
2022/06/22 05:39:12;;;;;;;27.75;18.63;;;;;;;14.19;100.00;101202.47;5094473;28;20423;-57
2022/06/22 05:41:42;;;;;;;25.27;18.67;;;;;;;14.24;100.00;101200.56;5094410;28;20032;-58
2022/06/22 05:44:13;;;;;;;26.55;18.27;;;;;;;14.30;100.00;101205.72;5095010;28;20035;-58
2022/06/22 05:46:54;;;;;;;25.88;18.48;;;;;;;14.37;100.00;101211.72;5094356;28;20092;-58
2022/06/22 05:49:25;;;;;;;23.70;17.80;;;;;;;14.44;100.00;101219.44;5094529;28;20042;-57
2022/06/22 05:52:09;;;;;;;24.75;17.58;;;;;;;14.47;99.71;101216.75;5094487;28;20032;-58
2022/06/22 05:54:54;;;;;;;24.30;18.02;;;;;;;14.49;99.32;101222.84;5076809;28;20382;-57
2022/06/22 05:57:36;;;;;;;28.38;18.13;;;;;;;14.55;99.50;101232.34;5094247;28;20031;-57
2022/06/22 06:00:33;;;;;;;23.05;17.35;;;;;;;14.95;98.72;101232.25;5094340;28;20189;-58
2022/06/22 06:03:15;;;;;;;20.40;16.20;;;;;;;16.01;93.66;101234.63;5093130;28;20084;-58
2022/06/22 06:05:44;;;;;;;19.70;15.90;;;;;;;16.49;90.20;101235.81;5095396;28;20028;-57
2022/06/22 06:08:26;;;;;;;20.17;15.45;;;;;;;16.34;88.74;101235.38;5097780;28;20024;-57
2022/06/22 06:10:52;;;;;;;20.13;15.07;;;;;;;16.09;89.85;101226.50;5097949;28;20042;-57
2022/06/22 06:13:44;;;;;;;21.48;14.88;;;;;;;15.86;89.72;101232.44;5097765;28;20032;-57
2022/06/22 06:16:18;;;;;;;21.30;16.47;;;;;;;15.61;91.20;101229.63;5097321;28;20032;-56
2022/06/22 06:18:45;;;;;;;23.70;16.83;;;;;;;15.49;92.35;101229.94;5097937;28;20040;-57
2022/06/22 06:21:19;;;;;;;22.40;16.38;;;;;;;15.43;92.74;101230.09;5097612;28;20491;-58
2022/06/22 06:23:54;;;;;;;24.40;16.60;;;;;;;15.41;92.81;101231.91;5097711;28;20039;-58
2022/06/22 06:29:17;;;;;;;22.13;17.52;;;;;;;15.52;93.38;101236.91;5097433;28;20143;-58
2022/06/22 06:32:03;;;;;;;24.95;18.05;;;;;;;15.55;93.21;101228.91;5097555;28;20032;-60
2022/06/22 06:34:38;;;;;;;25.23;17.17;;;;;;;15.61;92.53;101234.91;5097284;28;20055;-59
2022/06/22 06:37:20;;;;;;;23.30;17.00;;;;;;;15.69;91.89;101244.41;5097133;28;20335;-59
2022/06/22 06:39:49;;;;;;;21.35;17.55;;;;;;;15.72;91.37;101244.31;5097279;28;20028;-59
2022/06/22 06:42:36;;;;;;;21.15;16.77;;;;;;;15.84;92.06;101236.03;5097389;28;20028;-59
2022/06/22 06:45:08;;;;;;;22.17;17.25;;;;;;;15.96;90.72;101225.13;5097453;28;20034;-59
2022/06/22 06:47:36;;;;;;;25.40;16.95;;;;;;;16.07;90.16;101217.75;5097107;28;20092;-60
2022/06/22 06:50:24;;;;;;;23.02;16.80;;;;;;;16.17;89.36;101213.91;5097210;28;20028;-59
2022/06/22 06:53:19;;;;;;;22.40;16.42;;;;;;;16.31;88.20;101210.84;5083726;28;20047;-59
2022/06/22 06:55:54;;;;;;;22.95;16.25;;;;;;;16.49;86.54;101209.41;5097077;28;20090;-57
2022/06/22 06:58:24;;;;;;;24.17;15.95;;;;;;;16.68;86.13;101203.50;5097370;28;20036;-61
2022/06/22 07:00:51;;;;;;;24.00;15.85;;;;;;;16.77;85.12;101210.28;5096912;28;20111;-58
2022/06/22 07:03:22;;;;;;;19.23;14.93;;;;;;;16.76;84.22;101210.34;5096384;28;20114;-58
2022/06/22 07:05:48;;;;;;;19.15;15.38;;;;;;;16.72;83.85;101212.22;5096769;28;20074;-58
2022/06/22 07:08:32;;;;;;;19.42;15.27;;;;;;;16.72;84.57;101206.06;5096645;28;20040;-58
2022/06/22 07:11:32;;;;;;;21.85;15.30;;;;;;;16.76;84.45;101197.13;5096490;28;20474;-58
2022/06/22 07:14:33;;;;;;;23.88;15.43;;;;;;;16.84;84.12;101203.84;5091043;28;20047;-58
2022/06/22 07:17:03;;;;;;;23.20;15.80;;;;;;;16.92;83.55;101207.13;5091414;28;20101;-59
2022/06/22 07:19:36;;;;;;;20.15;15.02;;;;;;;17.03;83.09;101197.03;5098821;28;20051;-57
2022/06/22 07:22:29;;;;;;;20.60;14.25;;;;;;;17.20;82.76;101190.28;5115152;28;20063;-59
2022/06/22 07:25:17;;;;;;;20.55;14.38;;;;;;;17.35;82.67;101195.91;5116925;28;20028;-59
2022/06/22 07:27:53;;;;;;;19.00;14.30;;;;;;;17.46;80.56;101192.88;5116474;28;20027;-61
2022/06/22 07:30:27;;;;;;;18.08;14.63;;;;;;;17.60;80.74;101189.72;5116814;28;20438;-58
2022/06/22 07:33:07;;;;;;;17.73;14.32;;;;;;;17.68;79.96;101167.38;5116596;28;20037;-58
2022/06/22 07:36:03;;;;;;;21.60;13.30;;;;;;;17.84;79.22;101170.28;5116377;28;20047;-58
2022/06/22 07:38:31;;;;;;;16.75;12.55;;;;;;;17.94;77.30;101168.19;5116529;28;20122;-58
2022/06/22 07:43:42;;;;;;;20.35;12.55;;;;;;;18.25;76.53;101175.78;5116545;28;20076;-58
2022/06/22 07:46:16;;;;;;;18.10;11.93;;;;;;;18.37;74.90;101194.69;5116575;28;20096;-58
2022/06/22 07:48:46;;;;;;;16.40;11.43;;;;;;;18.46;74.80;101190.81;5116477;28;20027;-59
2022/06/22 07:51:22;;;;;;;18.48;11.77;;;;;;;18.61;72.64;101184.06;5116267;28;20035;-59
2022/06/22 07:54:12;;;;;;;12.60;10.35;;;;;;;18.64;73.08;101178.63;5116556;28;20073;-58
2022/06/22 07:56:58;;;;;;;19.40;11.07;;;;;;;18.72;72.01;101181.81;5116240;28;20034;-59
2022/06/22 07:59:32;;;;;;;15.55;10.55;;;;;;;18.72;71.71;101179.16;5116342;28;20030;-59
2022/06/22 08:02:01;;;;;;;13.25;9.70;;;;;;;18.78;70.08;101181.56;5116175;28;20031;-58
2022/06/22 08:04:40;;;;;;;13.73;9.20;;;;;;;18.89;69.90;101178.44;5115950;28;20028;-58
2022/06/22 08:07:18;;;;;;;12.73;9.10;;;;;;;18.95;69.42;101175.56;5116080;28;20023;-58
2022/06/22 08:09:55;;;;;;;13.48;8.38;;;;;;;19.08;68.92;101176.75;5116435;28;20063;-58
2022/06/22 08:12:30;;;;;;;15.63;8.48;;;;;;;19.18;69.41;101187.84;5115929;28;20031;-58
2022/06/22 08:14:56;;;;;;;10.77;7.88;;;;;;;19.18;69.17;101183.38;5116356;28;20040;-60
2022/06/22 08:17:47;;;;;;;16.17;9.18;;;;;;;19.21;69.99;101187.72;5115696;28;20035;-58
2022/06/22 08:20:19;;;;;;;16.07;11.87;;;;;;;19.15;71.28;101190.63;5115835;28;20100;-57
2022/06/22 08:22:47;;;;;;;17.20;11.93;;;;;;;19.12;72.01;101192.47;5115771;28;20095;-57
2022/06/22 08:25:15;;;;;;;16.95;12.35;;;;;;;19.11;72.00;101196.03;5115660;28;20032;-57
2022/06/22 08:27:42;;;;;;;11.48;9.95;;;;;;;19.12;69.47;101192.47;5115202;28;20052;-58
2022/06/22 08:30:11;;;;;;;15.25;11.23;;;;;;;19.15;70.37;101202.09;5115423;28;20118;-59
2022/06/22 08:32:42;;;;;;;14.98;11.70;;;;;;;19.20;71.43;101193.94;5115603;28;20038;-58
2022/06/22 08:35:32;;;;;;;14.00;11.32;;;;;;;19.28;71.98;101199.75;5115912;28;20080;-59
2022/06/22 08:38:11;;;;;;;12.43;9.35;;;;;;;19.29;69.71;101190.88;5115472;28;20031;-60
2022/06/22 08:40:52;;;;;;;12.70;9.43;;;;;;;19.36;68.96;101195.00;5115209;28;20324;-58
2022/06/22 08:43:34;;;;;;;11.25;8.23;;;;;;;19.37;66.64;101202.88;5113768;28;20034;-58
2022/06/22 08:46:30;;;;;;;9.52;7.13;;;;;;;19.46;66.82;101204.25;5113949;28;20027;-59
2022/06/22 08:49:14;;;;;;;10.40;6.53;;;;;;;19.56;64.06;101208.28;5113859;28;20084;-59
2022/06/22 08:52:03;;;;;;;10.20;7.15;;;;;;;19.63;64.57;101201.75;5113738;28;20031;-59
2022/06/22 08:55:05;;;;;;;9.10;6.20;;;;;;;19.94;63.62;101203.84;5113614;28;20031;-59
2022/06/22 08:57:53;;;;;;;7.63;5.53;;;;;;;20.34;62.37;101201.97;5072856;28;20077;-59
2022/06/22 09:00:43;;;;;;;7.22;5.50;;;;;;;20.63;62.10;101192.59;5113584;28;20028;-58
2022/06/22 09:03:48;;;;;;;8.27;4.97;;;;;;;21.12;60.79;101172.38;5113347;28;20059;-58
2022/06/22 09:06:38;;;;;;;10.07;5.63;;;;;;;21.70;56.69;101177.28;5113426;28;20023;-59
2022/06/22 09:09:36;;;;;;;12.63;5.10;;;;;;;22.19;56.12;101183.44;5113596;28;20030;-59
2022/06/22 09:12:06;;;;;;;9.20;5.47;;;;;;;22.62;52.08;101183.69;5113587;28;20039;-57
2022/06/22 09:15:07;;;;;;;7.63;5.22;;;;;;;23.03;51.75;101184.78;5113762;28;20085;-59
2022/06/22 09:18:14;;;;;;;8.60;5.03;;;;;;;23.81;49.92;101190.72;5113059;28;20028;-59
2022/06/22 09:20:58;;;;;;;6.40;4.50;;;;;;;24.70;47.27;101194.72;5041414;28;20036;-58
2022/06/22 09:23:40;;;;;;;5.50;4.20;;;;;;;25.27;45.49;101189.94;5115138;28;20134;-60
2022/06/22 09:26:18;;;;;;;6.30;3.13;;;;;;;25.94;42.19;101193.25;5114971;28;20338;-58
2022/06/22 09:28:57;;;;;;;6.13;3.00;;;;;;;26.65;39.61;101192.47;5115100;28;20044;-58
2022/06/22 09:32:01;;;;;;;4.45;2.67;;;;;;;27.21;40.49;101197.19;5114955;28;20035;-58
2022/06/22 09:34:54;;;;;;;7.85;3.10;;;;;;;27.18;39.35;101192.94;5115234;28;20127;-58
2022/06/22 09:37:49;;;;;;;6.85;3.03;;;;;;;27.38;39.60;101197.59;5114856;28;20035;-59
2022/06/22 09:40:17;;;;;;;7.00;3.35;;;;;;;26.15;39.22;101198.84;5116557;28;20419;-61
2022/06/22 09:43:04;;;;;;;4.82;3.40;;;;;;;25.60;40.63;101207.31;5118702;28;20437;-60
2022/06/22 09:45:38;;;;;;;7.47;3.35;;;;;;;24.86;41.38;101208.78;5118964;28;20028;-59
2022/06/22 09:48:18;;;;;;;6.32;3.58;;;;;;;24.37;42.66;101208.50;5119404;28;20107;-60
2022/06/22 09:50:55;;;;;;;7.20;3.90;;;;;;;23.87;44.08;101183.19;5118940;28;20042;-60
2022/06/22 09:53:38;;;;;;;5.78;3.22;;;;;;;23.72;45.88;101200.19;5118750;28;20036;-60
2022/06/22 09:56:41;;;;;;;5.63;3.47;;;;;;;23.64;45.55;101196.25;5118771;28;20398;-59
2022/06/22 09:59:24;;;;;;;7.68;3.70;;;;;;;23.39;45.54;101196.84;5118746;28;20039;-58
2022/06/22 10:02:13;;;;;;;6.07;3.03;;;;;;;23.47;47.02;101199.94;5118858;28;20024;-58
2022/06/22 10:04:58;;;;;;;5.88;3.53;;;;;;;23.55;46.84;101182.50;5118691;28;20062;-59
2022/06/22 10:07:47;;;;;;;8.80;3.50;;;;;;;23.57;46.39;101185.94;5118218;28;20020;-59
2022/06/22 10:10:30;;;;;;;7.13;3.50;;;;;;;23.59;45.41;101184.03;5118321;28;20340;-59
2022/06/22 10:13:22;;;;;;;5.50;3.00;;;;;;;23.73;45.48;101175.13;5118487;28;20358;-59
2022/06/22 10:16:03;;;;;;;;;;;;;;;23.77;47.26;101190.03;5118537;28;20373;-59
2022/06/22 10:18:42;;;;;;;7.53;3.35;;;;;;;23.87;44.60;101175.16;5117755;28;19919;-59
2022/06/22 10:21:31;;;;;;;5.85;2.67;;;;;;;23.93;44.37;101174.75;5118051;28;20077;-59
2022/06/22 10:24:26;;;;;;;7.38;3.65;;;;;;;23.90;44.53;101166.91;5117953;28;20031;-61
2022/06/22 10:27:03;;;;;;;5.47;3.30;;;;;;;23.90;44.43;101174.94;5117952;28;20132;-57
2022/06/22 10:29:47;;;;;;;5.57;2.80;;;;;;;24.10;45.10;101170.97;5117830;28;20051;-58
2022/06/22 10:32:36;;;;;;;5.30;3.55;;;;;;;24.17;42.08;101169.66;5117877;28;20081;-59
2022/06/22 10:35:23;;;;;;;8.10;3.47;;;;;;;23.97;42.90;101170.06;5105418;28;20039;-59
2022/06/22 10:37:59;;;;;;;5.22;3.10;;;;;;;23.97;41.69;101161.19;5118195;28;20037;-59
2022/06/22 10:47:16;;;;;;;5.43;2.67;;;;;;;24.06;42.88;101166.81;5118177;28;20042;-59
2022/06/22 10:50:03;;;;;;;7.53;3.50;;;;;;;24.23;42.80;101171.97;5117500;28;20038;-59
2022/06/22 10:52:47;;;;;;;6.60;2.95;;;;;;;24.22;40.94;101174.69;5098407;28;20323;-59
2022/06/22 10:55:18;;;;;;;4.70;3.05;;;;;;;24.13;40.46;101162.78;5117146;28;20043;-59
2022/06/22 10:57:58;;;;;;;5.85;3.10;;;;;;;24.12;41.42;101160.19;5116967;28;20023;-58
2022/06/22 11:00:47;;;;;;;5.32;3.33;;;;;;;24.25;41.40;101159.31;5117757;28;20031;-57
2022/06/22 11:03:40;;;;;;;6.30;3.17;;;;;;;24.22;41.82;101155.97;5104649;28;20090;-58
2022/06/22 11:06:24;;;;;;;5.10;2.97;;;;;;;24.22;41.51;101153.31;5117323;28;20020;-58
2022/06/22 11:09:06;;;;;;;4.40;2.47;;;;;;;24.30;41.85;101153.69;5117103;28;20431;-58
2022/06/22 11:11:45;;;;;;;6.35;2.55;;;;;;;24.42;40.01;101162.69;5117408;28;20063;-59
2022/06/22 11:14:28;;;;;;;5.97;2.65;;;;;;;24.29;40.90;101141.25;5117243;28;20031;-59
2022/06/22 11:17:31;;;;;;;4.90;2.58;;;;;;;24.50;41.37;101155.91;5117089;28;20019;-59
2022/06/22 11:20:18;;;;;;;4.53;2.28;;;;;;;24.63;40.24;101153.25;5117113;28;20030;-58
2022/06/22 11:22:51;;;;;;;3.05;2.45;;;;;;;24.71;39.63;101139.38;5117123;28;20031;-58
2022/06/22 11:31:59;;;;;;;5.50;2.70;;;;;;;24.76;40.53;101148.81;5117059;28;20361;-59
2022/06/22 11:34:52;;;;;;;4.43;2.70;;;;;;;24.76;39.85;101148.81;5116775;28;20323;-58
2022/06/22 11:37:32;;;;;;;7.03;2.88;;;;;;;24.63;40.47;101162.13;5116590;28;20438;-59
2022/06/22 11:40:23;;;;;;;5.35;2.65;;;;;;;24.60;40.18;101159.66;5116593;28;20031;-59
2022/06/22 11:43:00;;;;;;;4.43;2.10;;;;;;;24.87;39.92;101162.31;5116576;28;20023;-58
2022/06/22 11:45:54;;;;;;;4.35;2.50;;;;;;;25.01;38.94;101155.19;5116395;28;20035;-59
2022/06/22 11:48:44;;;;;;;4.60;2.40;;;;;;;25.19;39.71;101159.28;5074783;28;20111;-60
2022/06/22 11:51:34;;;;;;;4.97;2.55;;;;;;;25.11;37.64;101154.44;5116500;28;20020;-59
2022/06/22 11:54:09;;;;;;;4.53;2.53;;;;;;;24.91;38.57;101158.47;5116225;28;20119;-59
2022/06/22 11:56:55;;;;;;;4.95;2.60;;;;;;;24.92;39.14;101157.50;5116062;28;20441;-62
2022/06/22 11:59:48;;;;;;;5.07;2.40;;;;;;;25.03;39.45;101156.81;5116378;28;20422;-58
2022/06/22 12:02:30;;;;;;;5.80;2.13;;;;;;;25.21;38.87;101152.00;5115969;28;20106;-58
2022/06/22 12:05:14;;;;;;;6.57;1.92;;;;;;;25.26;37.95;101156.06;5116197;28;20031;-58
2022/06/22 12:08:17;;;;;;;3.05;1.77;;;;;;;25.50;37.47;101155.28;5116245;28;20343;-59
2022/06/22 12:11:00;;;;;;;5.15;2.20;;;;;;;25.59;37.09;101152.84;5115755;28;20070;-59
2022/06/22 12:16:38;;;;;;;3.33;2.10;;;;;;;25.56;36.34;101144.16;5116221;28;20034;-60
2022/06/22 12:19:32;;;;;;;3.38;1.85;;;;;;;25.49;36.82;101137.50;5115661;28;20092;-59
2022/06/22 12:22:08;;;;;;;2.45;1.90;;;;;;;25.35;36.14;101126.91;5116089;28;20032;-59
2022/06/22 12:24:57;;;;;;;6.25;2.30;;;;;;;25.36;34.74;101124.13;5115965;28;20392;-59
2022/06/22 12:27:28;;;;;;;3.50;2.00;;;;;;;25.52;36.39;101124.75;5115768;28;20036;-59
2022/06/22 12:30:17;;;;;;;4.45;2.17;;;;;;;25.61;36.38;101117.88;5115310;28;20063;-60